Time;durP1;ratioP1;P1;durP2;ratioP2;P2;SDS_P1;SDS_P2;PMS_P1;PMS_P2;Temp;Humidity;BMP_temperature;BMP_pressure;BME280_temperature;BME280_humidity;BME280_pressure;Samples;Min_cycle;Max_cycle;Signal;HPM_P1;HPM_P2
2022/07/19 00:01:54;;;;;;;11.83;4.90;;;17.60;39.70;;;;;;5046649;28;20481;-83
2022/07/19 00:04:21;;;;;;;10.30;4.00;;;17.60;42.10;;;;;;5045964;28;20428;-82
2022/07/19 00:06:49;;;;;;;13.43;4.87;;;17.60;42.50;;;;;;5046646;28;20458;-82
2022/07/19 00:09:16;;;;;;;10.33;4.27;;;17.60;43.40;;;;;;5046223;28;20463;-81
2022/07/19 00:11:44;;;;;;;17.23;5.23;;;17.50;43.60;;;;;;5046586;28;20514;-82
2022/07/19 00:14:10;;;;;;;22.53;5.70;;;17.40;44.50;;;;;;5046586;28;20456;-83
2022/07/19 00:16:37;;;;;;;18.20;4.90;;;17.20;45.20;;;;;;5047150;28;20461;-82
2022/07/19 00:19:04;;;;;;;14.43;5.10;;;17.20;46.20;;;;;;5046063;28;21070;-82
2022/07/19 00:21:31;;;;;;;16.03;4.67;;;17.10;46.70;;;;;;5046953;28;20460;-83
2022/07/19 00:23:58;;;;;;;22.60;5.40;;;17.00;45.60;;;;;;5046101;28;20455;-82
2022/07/19 00:26:25;;;;;;;11.50;4.43;;;16.90;46.80;;;;;;5046259;28;20481;-84
2022/07/19 00:28:54;;;;;;;11.37;4.90;;;17.00;46.40;;;;;;5046107;28;20459;-82
2022/07/19 00:31:21;;;;;;;12.03;4.73;;;17.00;47.40;;;;;;5045796;28;20903;-83
2022/07/19 00:33:48;;;;;;;11.80;4.63;;;16.90;47.30;;;;;;5046063;28;20456;-82
2022/07/19 00:36:15;;;;;;;12.40;4.50;;;16.90;47.00;;;;;;5045610;28;20461;-82
2022/07/19 00:38:41;;;;;;;18.53;5.90;;;16.80;47.80;;;;;;5045791;28;20485;-81
2022/07/19 00:41:08;;;;;;;13.40;4.40;;;16.80;48.40;;;;;;5045858;28;20460;-82
2022/07/19 00:43:35;;;;;;;11.30;4.27;;;16.70;49.00;;;;;;5045602;28;20456;-82
2022/07/19 00:46:03;;;;;;;9.60;4.50;;;16.80;50.20;;;;;;5044035;28;20449;-82
2022/07/19 00:48:30;;;;;;;7.57;4.47;;;16.70;50.10;;;;;;5045865;28;20453;-83
2022/07/19 00:50:57;;;;;;;10.57;4.37;;;16.80;50.20;;;;;;5045776;28;20437;-82
2022/07/19 00:53:25;;;;;;;11.10;4.70;;;16.80;50.30;;;;;;5045838;28;20537;-82
2022/07/19 00:55:54;;;;;;;11.90;4.23;;;16.80;50.20;;;;;;5044970;28;20904;-82
2022/07/19 00:58:21;;;;;;;8.73;4.47;;;16.90;50.30;;;;;;5045869;28;20453;-82
2022/07/19 01:00:48;;;;;;;9.80;4.20;;;16.70;51.60;;;;;;5045756;28;20855;-82
2022/07/19 01:03:16;;;;;;;11.63;4.27;;;16.70;52.40;;;;;;5045209;28;21022;-82
2022/07/19 01:05:46;;;;;;;11.60;4.20;;;16.70;51.80;;;;;;5044967;28;20459;-82
2022/07/19 01:08:13;;;;;;;10.27;4.27;;;16.60;52.60;;;;;;5045224;28;20467;-82
2022/07/19 01:10:40;;;;;;;9.67;5.07;;;16.60;52.40;;;;;;5046007;28;20476;-82
2022/07/19 01:13:07;;;;;;;8.50;4.07;;;16.70;52.80;;;;;;5045276;28;20580;-82
2022/07/19 01:15:34;;;;;;;11.10;4.73;;;16.70;52.20;;;;;;5044747;28;20453;-82
2022/07/19 01:18:00;;;;;;;13.83;4.47;;;16.70;53.20;;;;;;5045343;28;20456;-82
2022/07/19 01:20:28;;;;;;;12.33;4.27;;;16.80;52.50;;;;;;5045192;28;20556;-82
2022/07/19 01:22:56;;;;;;;12.30;4.40;;;16.70;52.50;;;;;;5044995;28;20472;-82
2022/07/19 01:25:26;;;;;;;8.70;4.37;;;16.70;51.60;;;;;;5043965;28;20457;-82
2022/07/19 01:27:52;;;;;;;14.10;4.70;;;16.60;52.10;;;;;;5044866;28;20979;-82
2022/07/19 01:30:22;;;;;;;8.63;4.07;;;16.60;52.80;;;;;;5044479;28;20459;-83
2022/07/19 01:32:49;;;;;;;9.27;3.57;;;16.60;54.10;;;;;;5045557;28;20483;-84
2022/07/19 01:35:16;;;;;;;12.70;4.40;;;16.50;54.60;;;;;;5045312;28;20539;-83
2022/07/19 01:37:43;;;;;;;9.00;3.90;;;16.40;55.50;;;;;;5045942;28;20945;-82
2022/07/19 01:40:13;;;;;;;8.60;4.40;;;16.40;55.20;;;;;;5045414;28;20476;-82
2022/07/19 01:42:41;;;;;;;9.50;4.60;;;16.20;55.40;;;;;;5044982;28;20472;-81
2022/07/19 01:45:10;;;;;;;11.13;4.40;;;16.20;56.30;;;;;;5044885;28;20456;-82
2022/07/19 01:47:37;;;;;;;8.37;4.60;;;16.20;57.40;;;;;;5044916;28;20453;-82
2022/07/19 01:50:06;;;;;;;9.00;4.90;;;16.10;57.10;;;;;;5045106;28;20452;-82
2022/07/19 01:52:33;;;;;;;8.13;4.50;;;16.00;57.10;;;;;;5044233;28;20476;-82
2022/07/19 01:55:00;;;;;;;9.17;4.97;;;16.00;57.80;;;;;;5043884;28;20456;-82
2022/07/19 01:57:28;;;;;;;8.67;4.20;;;15.90;58.00;;;;;;5044427;28;20444;-82
2022/07/19 01:59:55;;;;;;;7.00;4.60;;;15.90;58.00;;;;;;5044109;28;20503;-83
2022/07/19 02:02:22;;;;;;;11.70;5.60;;;15.80;58.80;;;;;;5045036;28;20473;-83
2022/07/19 02:04:48;;;;;;;10.83;5.67;;;15.80;59.90;;;;;;5044370;28;20452;-82
2022/07/19 02:07:15;;;;;;;11.40;5.57;;;15.70;61.10;;;;;;5044479;28;20452;-82
2022/07/19 02:09:42;;;;;;;9.40;6.30;;;15.70;62.20;;;;;;5044796;28;20536;-82
2022/07/19 02:12:09;;;;;;;7.27;6.50;;;15.70;63.80;;;;;;5044475;28;20480;-82
2022/07/19 02:14:37;;;;;;;8.13;6.57;;;15.70;64.00;;;;;;5044249;28;20451;-82
2022/07/19 02:17:04;;;;;;;8.53;7.10;;;15.70;64.10;;;;;;5043956;28;20456;-82
2022/07/19 02:19:30;;;;;;;9.83;6.77;;;15.60;64.30;;;;;;5044720;28;20448;-82
2022/07/19 02:21:57;;;;;;;10.33;9.17;;;15.70;65.30;;;;;;5044467;28;20464;-82
2022/07/19 02:24:24;;;;;;;10.77;9.87;;;15.80;66.30;;;;;;5044117;28;20957;-82
2022/07/19 02:26:51;;;;;;;10.03;8.93;;;15.80;66.30;;;;;;5044380;28;20611;-82
2022/07/19 02:29:17;;;;;;;9.00;7.03;;;15.80;66.30;;;;;;5044092;28;20515;-82
2022/07/19 02:31:45;;;;;;;7.70;6.40;;;15.80;65.60;;;;;;5043915;28;20468;-82
2022/07/19 02:34:12;;;;;;;13.40;6.20;;;15.80;66.30;;;;;;5043026;28;20444;-81
2022/07/19 02:36:39;;;;;;;13.20;6.37;;;15.80;66.30;;;;;;5044112;28;20451;-82
2022/07/19 02:39:06;;;;;;;9.10;6.70;;;15.70;66.20;;;;;;5043560;28;20452;-81
2022/07/19 02:41:32;;;;;;;8.23;7.43;;;15.60;66.10;;;;;;5043937;28;20520;-82
2022/07/19 02:43:59;;;;;;;9.30;8.40;;;15.70;66.90;;;;;;5043729;28;20452;-82
2022/07/19 02:46:26;;;;;;;13.53;9.27;;;15.60;68.60;;;;;;5044617;28;20459;-82
2022/07/19 02:48:54;;;;;;;12.77;11.57;;;15.60;69.10;;;;;;5043671;28;20456;-82
2022/07/19 02:51:20;;;;;;;15.83;14.10;;;15.60;70.20;;;;;;5042320;28;20452;-82
2022/07/19 02:53:47;;;;;;;15.00;13.80;;;15.70;71.40;;;;;;5041692;28;20457;-79
2022/07/19 02:56:14;;;;;;;15.77;14.17;;;15.60;71.50;;;;;;5042493;28;20489;-82
2022/07/19 02:58:41;;;;;;;14.97;13.47;;;15.60;71.90;;;;;;5045255;28;20448;-82
2022/07/19 03:01:08;;;;;;;14.37;11.10;;;15.60;71.70;;;;;;5045392;28;20526;-81
2022/07/19 03:03:46;;;;;;;12.10;11.10;;;15.60;71.50;;;;;;5044481;28;20479;-84
2022/07/19 03:06:17;;;;;;;13.33;12.13;;;15.60;71.30;;;;;;5042355;28;20452;-81
2022/07/19 03:08:44;;;;;;;13.37;12.27;;;15.60;70.90;;;;;;5042125;28;20460;-82
2022/07/19 03:11:11;;;;;;;12.43;11.30;;;15.60;71.20;;;;;;5043032;28;20449;-82
2022/07/19 03:13:38;;;;;;;16.90;13.40;;;15.60;71.00;;;;;;5044174;28;20460;-81
2022/07/19 03:16:05;;;;;;;12.33;9.93;;;15.60;71.80;;;;;;5043763;28;20452;-81
2022/07/19 03:18:32;;;;;;;9.43;7.00;;;15.60;71.10;;;;;;5045329;28;20452;-81
2022/07/19 03:20:59;;;;;;;8.60;6.40;;;15.60;69.90;;;;;;5046248;28;20480;-82
2022/07/19 03:23:28;;;;;;;10.93;6.13;;;15.60;67.60;;;;;;5045723;28;20562;-83
2022/07/19 03:25:55;;;;;;;8.63;5.60;;;15.70;67.70;;;;;;5045128;28;20463;-82
2022/07/19 03:28:21;;;;;;;10.40;5.80;;;15.70;67.00;;;;;;5043990;28;20463;-82
2022/07/19 03:30:48;;;;;;;8.40;4.77;;;15.80;66.30;;;;;;5044134;28;20448;-82
2022/07/19 03:33:15;;;;;;;6.90;4.10;;;15.90;64.90;;;;;;5045123;28;20478;-82
2022/07/19 03:35:43;;;;;;;6.50;4.20;;;16.00;63.10;;;;;;5044145;28;20451;-81
2022/07/19 03:38:10;;;;;;;10.33;4.73;;;16.00;63.30;;;;;;5043479;28;20456;-82
2022/07/19 03:40:38;;;;;;;7.73;4.03;;;15.90;63.00;;;;;;5044633;28;20506;-82
2022/07/19 03:43:05;;;;;;;10.40;4.03;;;16.00;62.70;;;;;;5044306;28;20533;-81
2022/07/19 03:45:32;;;;;;;7.77;4.60;;;15.80;62.90;;;;;;5044820;28;20853;-81
2022/07/19 03:48:00;;;;;;;6.60;4.40;;;15.70;63.00;;;;;;5044582;28;20459;-83
2022/07/19 03:50:27;;;;;;;6.30;4.30;;;15.60;65.60;;;;;;5044493;28;20948;-82
2022/07/19 03:52:54;;;;;;;7.13;4.20;;;15.70;66.20;;;;;;5044515;28;20472;-82
2022/07/19 03:55:21;;;;;;;8.90;4.70;;;15.70;66.20;;;;;;5044876;28;20475;-82
2022/07/19 03:57:49;;;;;;;8.13;5.27;;;15.80;66.30;;;;;;5044078;28;20454;-82
2022/07/19 04:00:16;;;;;;;8.73;4.97;;;15.80;66.30;;;;;;5044911;28;20885;-81
2022/07/19 04:02:43;;;;;;;24.63;5.40;;;15.90;66.40;;;;;;5041565;28;20476;-80
2022/07/19 04:05:10;;;;;;;7.20;3.90;;;15.90;66.00;;;;;;5038076;28;20463;-82
2022/07/19 04:07:36;;;;;;;8.07;4.80;;;16.00;64.20;;;;;;5042815;28;20461;-82
2022/07/19 04:10:04;;;;;;;9.73;4.90;;;16.00;64.40;;;;;;5035893;28;20544;-80
2022/07/19 04:12:30;;;;;;;7.37;4.73;;;16.00;65.00;;;;;;5042828;28;20472;-82
2022/07/19 04:14:58;;;;;;;9.73;5.43;;;16.00;66.50;;;;;;5044780;28;20912;-82
2022/07/19 04:17:25;;;;;;;9.90;5.80;;;16.00;66.50;;;;;;5044900;28;20456;-82
2022/07/19 04:19:52;;;;;;;7.57;5.30;;;16.10;66.50;;;;;;5044516;28;20464;-81
2022/07/19 04:22:19;;;;;;;9.13;6.10;;;16.10;66.50;;;;;;5044446;28;20477;-83
2022/07/19 04:24:45;;;;;;;12.33;6.63;;;16.20;66.60;;;;;;5043907;28;20462;-82
2022/07/19 04:27:12;;;;;;;10.50;8.20;;;16.20;66.60;;;;;;5044709;28;20456;-79
2022/07/19 04:29:39;;;;;;;11.90;6.60;;;16.30;66.70;;;;;;5044500;28;20461;-82
2022/07/19 04:32:07;;;;;;;7.57;5.10;;;16.30;66.70;;;;;;5044986;28;20472;-82
2022/07/19 04:34:34;;;;;;;8.10;5.80;;;16.40;66.80;;;;;;5043783;28;20460;-82
2022/07/19 04:37:01;;;;;;;6.90;5.20;;;16.50;66.90;;;;;;5044854;28;20452;-82
2022/07/19 04:39:27;;;;;;;9.20;5.80;;;16.60;66.10;;;;;;5044732;28;20684;-81
2022/07/19 04:41:54;;;;;;;10.03;5.23;;;16.70;65.30;;;;;;5044357;28;21030;-82
2022/07/19 04:44:24;;;;;;;11.03;5.57;;;16.80;65.00;;;;;;5044221;28;20456;-81
2022/07/19 04:46:50;;;;;;;11.07;5.20;;;16.90;64.60;;;;;;5043831;28;20452;-82
2022/07/19 04:49:19;;;;;;;10.00;4.10;;;16.90;63.40;;;;;;5043807;28;20461;-81
2022/07/19 04:51:45;;;;;;;6.50;3.73;;;17.10;61.50;;;;;;5043250;28;20469;-82
2022/07/19 04:54:12;;;;;;;6.70;3.73;;;17.20;58.60;;;;;;5043257;28;20821;-82
2022/07/19 04:56:39;;;;;;;5.40;3.30;;;17.40;59.40;;;;;;5044031;28;20468;-82
2022/07/19 04:59:08;;;;;;;7.93;2.90;;;17.50;56.10;;;;;;5043708;28;20457;-82
2022/07/19 05:01:35;;;;;;;6.17;3.00;;;17.70;56.40;;;;;;5043751;28;20510;-82
2022/07/19 05:04:01;;;;;;;6.63;3.30;;;17.80;54.00;;;;;;5042210;28;20500;-81
2022/07/19 05:06:29;;;;;;;5.50;2.87;;;18.00;52.40;;;;;;5041112;28;20459;-82
2022/07/19 05:08:57;;;;;;;9.93;3.13;;;18.20;51.50;;;;;;5042378;28;20465;-81
2022/07/19 05:11:24;;;;;;;6.00;3.07;;;18.40;49.00;;;;;;5041938;28;20455;-82
2022/07/19 05:13:51;;;;;;;6.83;3.30;;;18.60;46.90;;;;;;5041224;28;20525;-81
2022/07/19 05:16:17;;;;;;;8.77;3.80;;;18.80;46.30;;;;;;5039699;28;20471;-82
2022/07/19 05:18:44;;;;;;;6.10;3.07;;;18.90;44.20;;;;;;5041173;28;20827;-81
2022/07/19 05:21:11;;;;;;;6.33;3.30;;;19.10;43.50;;;;;;5040386;28;20482;-81
2022/07/19 05:23:41;;;;;;;8.90;3.10;;;19.30;42.20;;;;;;5040774;28;20459;-82
2022/07/19 05:26:08;;;;;;;8.47;3.17;;;19.40;41.40;;;;;;5041185;28;20456;-82
2022/07/19 05:28:34;;;;;;;8.37;3.63;;;19.50;40.00;;;;;;5039418;28;20457;-81
2022/07/19 05:31:01;;;;;;;8.07;2.77;;;19.70;39.70;;;;;;5041864;28;20451;-82
2022/07/19 05:33:29;;;;;;;7.87;2.90;;;20.00;38.90;;;;;;5041147;28;20869;-82
2022/07/19 05:35:56;;;;;;;7.93;2.50;;;20.50;37.70;;;;;;5041485;28;20463;-82
2022/07/19 05:38:28;;;;;;;6.00;2.67;;;21.00;36.20;;;;;;5041413;28;20454;-84
2022/07/19 05:40:56;;;;;;;5.30;2.97;;;21.40;32.20;;;;;;5041451;28;20480;-84
2022/07/19 05:43:23;;;;;;;6.47;2.53;;;21.90;30.10;;;;;;5041918;28;20878;-85
2022/07/19 05:45:50;;;;;;;9.40;3.07;;;22.30;28.70;;;;;;5041079;28;20550;-82
2022/07/19 05:48:16;;;;;;;7.17;3.07;;;22.70;25.70;;;;;;5042082;28;20439;-81
2022/07/19 05:50:43;;;;;;;9.43;2.77;;;23.20;25.10;;;;;;5041747;28;20452;-82
2022/07/19 05:53:10;;;;;;;7.27;2.90;;;23.60;22.30;;;;;;5042536;28;21042;-82
2022/07/19 05:55:38;;;;;;;10.00;2.67;;;23.90;22.50;;;;;;5041702;28;20456;-82
2022/07/19 05:58:06;;;;;;;6.27;2.60;;;24.30;19.50;;;;;;5041721;28;20494;-82
2022/07/19 06:00:33;;;;;;;5.80;2.47;;;24.50;15.90;;;;;;5040948;28;20458;-83
2022/07/19 06:03:00;;;;;;;7.47;2.90;;;24.70;14.40;;;;;;5040294;28;20543;-84
2022/07/19 06:05:27;;;;;;;7.83;2.30;;;24.90;13.30;;;;;;5034361;28;20447;-84
2022/07/19 06:07:56;;;;;;;5.37;2.00;;;25.20;12.80;;;;;;5033684;28;20438;-87
2022/07/19 06:10:23;;;;;;;7.30;2.80;;;25.40;11.70;;;;;;5032597;28;20818;-85
2022/07/19 06:12:50;;;;;;;7.07;2.47;;;25.50;9.70;;;;;;5033579;28;21003;-86
2022/07/19 06:15:18;;;;;;;8.70;2.60;;;25.70;9.30;;;;;;5033840;28;20459;-86
2022/07/19 06:17:44;;;;;;;5.67;2.60;;;25.90;8.80;;;;;;5032704;28;20456;-86
2022/07/19 06:20:12;;;;;;;7.37;2.70;;;26.10;8.70;;;;;;5032715;28;20456;-85
2022/07/19 06:22:38;;;;;;;8.40;2.67;;;26.30;6.70;;;;;;5032198;28;20480;-85
2022/07/19 06:25:06;;;;;;;14.23;3.10;;;26.40;6.20;;;;;;5032645;28;20456;-85
2022/07/19 06:27:33;;;;;;;5.70;2.10;;;26.80;5.00;;;;;;5032193;28;20546;-84
2022/07/19 06:30:00;;;;;;;10.20;2.67;;;26.80;4.00;;;;;;5032766;28;20426;-86
2022/07/19 06:32:28;;;;;;;6.50;2.90;;;26.90;4.20;;;;;;5032179;28;20471;-86
2022/07/19 06:34:55;;;;;;;8.17;2.27;;;27.00;3.50;;;;;;5032623;28;20448;-85
2022/07/19 06:37:22;;;;;;;5.70;2.00;;;27.00;2.20;;;;;;5032804;28;20648;-84
2022/07/19 06:39:49;;;;;;;8.40;2.27;;;27.20;1.40;;;;;;5033460;28;20531;-86
2022/07/19 06:42:15;;;;;;;8.33;2.20;;;27.30;1.00;;;;;;5031290;28;20487;-86
2022/07/19 06:44:42;;;;;;;9.87;2.50;;;27.50;1.00;;;;;;5015264;28;20454;-86
2022/07/19 06:47:09;;;;;;;14.90;2.33;;;27.60;1.00;;;;;;5017346;28;20457;-87
2022/07/19 06:49:37;;;;;;;9.87;2.87;;;27.80;1.00;;;;;;5016428;28;20436;-85
2022/07/19 06:52:03;;;;;;;8.67;2.50;;;28.10;1.00;;;;;;5016375;28;20469;-85
2022/07/19 06:54:30;;;;;;;6.60;2.30;;;28.50;1.00;;;;;;5016225;28;20456;-84
2022/07/19 06:56:57;;;;;;;7.07;2.80;;;28.80;1.00;;;;;;5016465;28;20803;-85
2022/07/19 06:59:24;;;;;;;6.50;2.53;;;28.90;1.00;;;;;;5016152;28;20449;-86
2022/07/19 07:01:51;;;;;;;6.90;2.70;;;29.10;1.00;;;;;;5015901;28;20989;-86
2022/07/19 07:04:18;;;;;;;5.90;2.30;;;29.20;1.00;;;;;;5015799;28;20457;-84
2022/07/19 07:06:46;;;;;;;7.97;2.80;;;29.40;1.00;;;;;;5016591;28;20543;-83
2022/07/19 07:09:12;;;;;;;6.70;2.40;;;29.30;1.00;;;;;;5016627;28;20435;-85
2022/07/19 07:11:39;;;;;;;6.53;2.77;;;29.40;1.00;;;;;;5016215;28;21057;-84
2022/07/19 07:14:06;;;;;;;10.80;2.07;;;29.80;1.00;;;;;;5019078;28;20435;-83
2022/07/19 07:16:32;;;;;;;7.10;2.40;;;29.90;1.00;;;;;;5027305;28;20435;-84
2022/07/19 07:18:59;;;;;;;8.57;3.20;;;30.00;1.00;;;;;;5026704;28;20453;-84
2022/07/19 07:21:26;;;;;;;8.00;3.00;;;30.30;1.00;;;;;;5026972;28;20528;-84
2022/07/19 07:23:54;;;;;;;7.00;2.50;;;30.40;1.00;;;;;;5026230;28;20460;-83
2022/07/19 07:26:21;;;;;;;8.40;2.77;;;30.50;1.00;;;;;;5026796;28;20451;-84
2022/07/19 07:28:47;;;;;;;7.97;2.70;;;30.50;1.00;;;;;;5026144;28;20464;-83
2022/07/19 07:31:14;;;;;;;9.00;2.50;;;30.60;1.00;;;;;;5026706;28;20426;-84
2022/07/19 07:33:41;;;;;;;7.53;2.83;;;30.60;1.00;;;;;;5025746;28;20430;-84
2022/07/19 07:36:08;;;;;;;6.90;2.40;;;30.80;1.00;;;;;;5025830;28;20439;-84
2022/07/19 07:38:41;;;;;;;7.10;2.50;;;31.10;1.00;;;;;;5026082;28;20432;-84
2022/07/19 07:41:11;;;;;;;6.43;2.83;;;31.40;1.00;;;;;;5016399;28;20458;-86
2022/07/19 07:43:38;;;;;;;8.93;2.73;;;31.20;1.00;;;;;;5015860;28;20949;-87
2022/07/19 07:46:11;;;;;;;6.97;2.53;;;31.30;1.00;;;;;;5016483;28;20776;-86
2022/07/19 07:48:38;;;;;;;7.60;2.70;;;31.60;1.00;;;;;;5034554;28;20535;-87
2022/07/19 07:51:28;;;;;;;8.00;2.30;;;31.80;1.00;;;;;;5034898;28;20427;-86
2022/07/19 07:54:01;;;;;;;7.93;2.90;;;31.90;1.00;;;;;;5034960;28;20490;-87
2022/07/19 07:56:30;;;;;;;9.30;2.17;;;32.00;1.00;;;;;;5034896;28;20794;-85
2022/07/19 07:58:57;;;;;;;5.73;2.43;;;32.00;1.00;;;;;;5034493;28;20456;-85
2022/07/19 08:01:24;;;;;;;9.57;3.23;;;32.10;1.00;;;;;;5034263;28;20448;-86
2022/07/19 08:03:50;;;;;;;5.93;2.20;;;32.10;1.00;;;;;;5034464;28;20440;-86
2022/07/19 08:06:17;;;;;;;16.43;3.10;;;32.50;1.00;;;;;;5034938;28;20541;-85
2022/07/19 08:08:44;;;;;;;5.77;2.27;;;32.50;1.00;;;;;;5034734;28;20464;-86
2022/07/19 08:11:11;;;;;;;6.67;2.50;;;32.60;1.00;;;;;;5034264;28;20456;-86
2022/07/19 08:13:39;;;;;;;8.93;2.17;;;32.90;1.00;;;;;;5034772;28;20456;-85
2022/07/19 08:16:12;;;;;;;6.40;2.70;;;32.90;1.00;;;;;;5034535;28;20949;-86
2022/07/19 08:18:39;;;;;;;6.97;2.63;;;32.90;1.00;;;;;;5034942;28;20480;-86
2022/07/19 08:21:06;;;;;;;8.43;2.30;;;33.30;1.00;;;;;;5034626;28;20451;-87
2022/07/19 08:23:41;;;;;;;5.37;2.20;;;33.60;1.00;;;;;;5034315;28;20455;-86
2022/07/19 08:26:09;;;;;;;17.63;2.37;;;34.00;1.00;;;;;;5034824;28;20452;-87
2022/07/19 08:28:51;;;;;;;5.87;2.20;;;34.00;1.00;;;;;;5034319;28;20873;-87
2022/07/19 08:31:17;;;;;;;6.20;2.47;;;34.50;1.00;;;;;;5034346;28;20957;-86
2022/07/19 08:33:45;;;;;;;8.70;2.77;;;34.60;1.00;;;;;;5035887;28;20448;-84
2022/07/19 08:36:11;;;;;;;10.13;2.57;;;35.10;1.00;;;;;;5042761;28;20473;-84
2022/07/19 08:38:39;;;;;;;7.23;2.50;;;35.30;1.00;;;;;;5043573;28;20524;-85
2022/07/19 08:41:06;;;;;;;8.60;2.60;;;35.30;1.00;;;;;;5043102;28;20456;-84
2022/07/19 08:43:33;;;;;;;5.93;2.67;;;35.50;1.00;;;;;;5043296;28;20465;-84
2022/07/19 08:46:05;;;;;;;14.33;2.47;;;35.60;1.00;;;;;;5044082;28;20456;-84
2022/07/19 08:48:34;;;;;;;5.73;2.10;;;35.70;1.00;;;;;;5044976;28;20452;-84
2022/07/19 08:51:01;;;;;;;7.60;2.65;;;36.00;1.00;;;;;;5043402;28;20967;-84
2022/07/19 08:53:31;;;;;;;6.23;2.67;;;35.90;1.00;;;;;;5043882;28;20221;-83
2022/07/19 08:55:59;;;;;;;5.93;2.40;;;36.30;1.00;;;;;;5042063;28;20430;-84
2022/07/19 08:58:24;;;;;;;15.23;2.70;;;36.50;1.00;;;;;;5043926;28;20423;-84
2022/07/19 09:00:51;;;;;;;7.03;2.40;;;36.50;1.00;;;;;;5042763;28;20448;-84
2022/07/19 09:03:21;;;;;;;7.47;2.83;;;36.40;1.00;;;;;;5044103;28;20213;-82
2022/07/19 09:05:48;;;;;;;7.33;2.50;;;36.80;1.00;;;;;;5038800;28;20461;-85
2022/07/19 09:08:16;;;;;;;6.73;2.30;;;37.10;1.00;;;;;;5039039;28;20467;-84
2022/07/19 09:11:13;;;;;;;5.10;2.03;;;37.20;1.00;;;;;;5044461;28;20838;-85
2022/07/19 09:13:32;;;;;;;5.10;2.00;;;37.20;1.00;;;;;;5042374;28;20579;-84
2022/07/19 09:15:59;;;;;;;6.27;2.43;;;37.20;1.00;;;;;;5042624;28;20543;-84
2022/07/19 09:18:28;;;;;;;12.30;2.47;;;37.10;1.00;;;;;;5043517;28;20456;-84
2022/07/19 09:20:58;;;;;;;6.70;2.67;;;37.20;1.00;;;;;;5042431;28;20438;-84
2022/07/19 09:23:26;;;;;;;8.10;2.57;;;37.50;1.00;;;;;;5043511;28;20464;-84
2022/07/19 09:25:55;;;;;;;21.43;3.27;;;37.70;1.00;;;;;;5043344;28;20423;-84
2022/07/19 09:28:23;;;;;;;10.17;2.60;;;37.90;1.00;;;;;;5044080;28;20842;-84
2022/07/19 09:30:51;;;;;;;8.10;2.80;;;38.10;1.00;;;;;;5043867;28;20423;-83
2022/07/19 09:33:19;;;;;;;6.77;2.70;;;38.00;1.00;;;;;;5043355;28;20461;-84
2022/07/19 09:35:48;;;;;;;7.83;2.50;;;38.00;1.00;;;;;;5043319;28;20459;-85
2022/07/19 09:38:24;;;;;;;8.87;2.47;;;38.40;1.00;;;;;;5044012;28;20923;-84
2022/07/19 09:40:53;;;;;;;6.87;2.67;;;38.40;1.00;;;;;;5043512;28;20426;-84
2022/07/19 09:43:30;;;;;;;6.20;2.53;;;38.90;1.00;;;;;;5043410;28;20510;-84
2022/07/19 09:45:57;;;;;;;7.10;2.40;;;39.00;1.00;;;;;;5043270;28;20508;-84
2022/07/19 09:48:43;;;;;;;11.53;2.57;;;39.30;1.00;;;;;;5044752;28;20431;-84
2022/07/19 09:51:11;;;;;;;6.10;2.30;;;38.80;1.00;;;;;;5042294;28;20455;-83
2022/07/19 09:53:39;;;;;;;6.13;2.33;;;39.20;1.00;;;;;;5042948;28;20457;-85
2022/07/19 09:56:06;;;;;;;21.60;4.63;;;39.30;1.00;;;;;;5039615;28;20442;-84
2022/07/19 09:58:32;;;;;;;11.67;4.43;;;39.30;1.00;;;;;;5040245;28;20622;-84
2022/07/19 10:00:59;;;;;;;8.67;2.50;;;39.80;1.00;;;;;;5044082;28;20444;-85
2022/07/19 10:03:26;;;;;;;8.63;2.83;;;39.30;1.00;;;;;;5043266;28;20468;-85
2022/07/19 10:05:55;;;;;;;8.10;2.67;;;39.60;1.00;;;;;;5042567;28;20448;-84
2022/07/19 10:08:23;;;;;;;5.37;2.07;;;40.00;1.00;;;;;;5042409;28;20478;-84
2022/07/19 10:10:50;;;;;;;10.10;2.50;;;40.00;1.00;;;;;;5042442;28;20447;-83
2022/07/19 10:13:18;;;;;;;9.27;2.57;;;40.40;1.00;;;;;;5042214;28;20472;-85
2022/07/19 10:15:49;;;;;;;5.60;2.40;;;40.60;1.00;;;;;;5042493;28;20448;-84
2022/07/19 10:18:20;;;;;;;5.00;2.33;;;40.80;1.00;;;;;;5044307;28;20411;-84
2022/07/19 10:20:48;;;;;;;6.50;2.13;;;40.60;1.00;;;;;;5044058;28;20481;-85
2022/07/19 10:23:14;;;;;;;8.03;2.53;;;41.00;1.00;;;;;;5044667;28;20526;-83
2022/07/19 10:25:45;;;;;;;8.30;2.60;;;40.90;1.00;;;;;;5043358;28;20430;-84
2022/07/19 10:28:29;;;;;;;9.10;2.50;;;41.10;1.00;;;;;;5043093;28;20459;-84
2022/07/19 10:30:56;;;;;;;6.47;2.80;;;41.10;1.00;;;;;;5042648;28;20940;-83
2022/07/19 10:33:31;;;;;;;6.57;2.87;;;41.30;1.00;;;;;;5043962;28;20467;-85
2022/07/19 10:35:58;;;;;;;5.23;2.23;;;41.60;1.00;;;;;;5041822;28;20429;-85
2022/07/19 10:38:25;;;;;;;10.67;2.30;;;41.40;1.00;;;;;;5044522;28;20455;-85
2022/07/19 10:40:56;;;;;;;5.27;1.97;;;41.10;1.00;;;;;;5044368;28;20452;-84
2022/07/19 10:43:23;;;;;;;5.47;2.37;;;41.10;1.00;;;;;;5042939;28;20501;-84
2022/07/19 10:46:11;;;;;;;6.90;2.50;;;41.20;1.00;;;;;;5041721;28;20482;-83
2022/07/19 10:48:39;;;;;;;9.63;1.90;;;41.60;1.00;;;;;;5042287;28;20474;-84
2022/07/19 10:51:07;;;;;;;6.90;2.40;;;41.50;1.00;;;;;;5043479;28;20455;-85
2022/07/19 10:54:02;;;;;;;8.93;2.33;;;41.70;1.00;;;;;;5042800;28;20471;-84
2022/07/19 10:56:36;;;;;;;12.03;2.30;;;42.00;1.00;;;;;;5044363;28;20454;-84
2022/07/19 10:59:07;;;;;;;8.30;2.33;;;42.50;1.00;;;;;;5042226;28;20437;-84
2022/07/19 11:01:35;;;;;;;6.90;2.10;;;42.50;1.00;;;;;;5039109;28;20442;-82
2022/07/19 11:04:28;;;;;;;8.30;3.10;;;43.10;1.00;;;;;;5041628;28;20519;-84
2022/07/19 11:07:14;;;;;;;6.80;2.40;;;42.80;1.00;;;;;;5042268;28;20490;-84
2022/07/19 11:09:46;;;;;;;4.93;1.87;;;43.30;1.00;;;;;;5042291;28;20444;-84
2022/07/19 11:12:30;;;;;;;5.10;2.00;;;43.00;1.00;;;;;;5041596;28;20509;-84
2022/07/19 11:14:57;;;;;;;5.70;2.20;;;42.60;1.00;;;;;;5041403;28;20607;-84
2022/07/19 11:17:24;;;;;;;5.50;2.23;;;42.80;1.00;;;;;;5041345;28;20455;-83
2022/07/19 11:19:59;;;;;;;6.30;2.23;;;42.30;1.00;;;;;;5040518;28;20475;-83
2022/07/19 11:22:26;;;;;;;5.10;1.80;;;42.60;1.00;;;;;;5023081;28;20499;-83
2022/07/19 11:24:53;;;;;;;6.03;1.70;;;42.50;1.00;;;;;;5020978;28;20423;-83
2022/07/19 11:27:20;;;;;;;5.70;2.00;;;42.70;1.00;;;;;;5022594;28;20456;-86
2022/07/19 11:29:58;;;;;;;10.77;1.90;;;42.60;1.00;;;;;;5023773;28;20462;-84
2022/07/19 11:32:24;;;;;;;4.83;2.00;;;42.80;1.00;;;;;;5026008;28;20992;-83
2022/07/19 11:34:58;;;;;;;7.77;2.10;;;42.80;1.00;;;;;;5023974;28;20452;-82
2022/07/19 11:37:27;;;;;;;6.93;2.20;;;42.90;1.00;;;;;;5025216;28;20902;-83
2022/07/19 11:39:54;;;;;;;5.50;2.10;;;43.30;1.00;;;;;;5024017;28;20452;-83
2022/07/19 11:42:32;;;;;;;5.53;1.90;;;42.80;1.00;;;;;;5024826;28;20447;-85
2022/07/19 11:45:07;;;;;;;9.80;2.63;;;42.90;1.00;;;;;;5024255;28;20451;-83
2022/07/19 11:47:34;;;;;;;5.73;1.90;;;43.10;1.00;;;;;;5024067;28;20451;-83
2022/07/19 11:50:05;;;;;;;6.27;2.23;;;43.60;1.00;;;;;;5023850;28;20427;-83
2022/07/19 11:52:42;;;;;;;5.40;2.10;;;43.70;1.00;;;;;;5023983;28;20443;-83
2022/07/19 11:55:10;;;;;;;5.60;1.93;;;44.30;1.00;;;;;;5023362;28;20448;-83
2022/07/19 11:57:37;;;;;;;5.27;1.83;;;44.30;1.00;;;;;;5023812;28;20452;-85
2022/07/19 12:00:07;;;;;;;7.13;2.00;;;44.20;1.00;;;;;;5024845;28;20448;-84
2022/07/19 12:03:08;;;;;;;6.20;2.30;;;44.10;1.00;;;;;;5023951;28;20484;-83
2022/07/19 12:05:37;;;;;;;6.10;2.40;;;44.00;1.00;;;;;;5022250;28;20495;-83
2022/07/19 12:08:06;;;;;;;28.33;4.30;;;44.40;1.00;;;;;;5024925;28;20439;-83
2022/07/19 12:10:37;;;;;;;19.13;2.70;;;44.40;1.00;;;;;;5022785;28;20463;-84
2022/07/19 12:13:05;;;;;;;12.53;2.63;;;44.70;1.00;;;;;;5023617;28;20477;-85
2022/07/19 12:15:52;;;;;;;6.13;2.80;;;44.60;1.00;;;;;;5022956;28;20995;-83
2022/07/19 12:18:21;;;;;;;7.00;2.70;;;44.60;1.00;;;;;;5024197;28;20452;-84
2022/07/19 12:21:30;;;;;;;5.80;2.33;;;44.50;1.00;;;;;;5024091;28;20456;-84
2022/07/19 12:24:11;;;;;;;6.60;2.37;;;45.00;1.00;;;;;;5000345;28;20491;-82
2022/07/19 12:26:39;;;;;;;8.90;2.57;;;45.20;1.00;;;;;;5024444;28;20544;-84
2022/07/19 12:29:18;;;;;;;8.77;2.47;;;44.40;1.00;;;;;;5024307;28;20820;-84
2022/07/19 12:31:47;;;;;;;5.90;2.27;;;44.00;1.00;;;;;;5021592;28;20447;-84
2022/07/19 12:34:14;;;;;;;7.77;2.90;;;44.20;1.00;;;;;;5022051;28;20952;-83
2022/07/19 12:36:41;;;;;;;11.40;2.57;;;44.60;1.00;;;;;;5023554;28;20906;-85
2022/07/19 12:39:19;;;;;;;10.53;2.40;;;44.00;1.00;;;;;;5022347;28;20869;-83
2022/07/19 12:41:57;;;;;;;23.63;3.90;;;44.80;1.00;;;;;;5022945;28;20505;-84
2022/07/19 12:44:27;;;;;;;7.80;2.17;;;45.00;1.00;;;;;;5019694;28;20873;-84
2022/07/19 12:46:56;;;;;;;9.00;3.20;;;45.20;1.00;;;;;;5022115;28;20423;-84
2022/07/19 12:49:23;;;;;;;5.67;1.97;;;45.60;1.00;;;;;;5017182;28;20809;-87
2022/07/19 12:51:50;;;;;;;9.60;2.60;;;45.50;1.00;;;;;;5014208;28;21023;-88
2022/07/19 12:54:17;;;;;;;7.03;2.23;;;45.40;1.00;;;;;;5013976;28;20423;-88
2022/07/19 12:56:44;;;;;;;8.30;3.07;;;45.30;1.00;;;;;;5013829;28;20202;-90